Impacts TAF Board INFO
FOR SITUATIONAL AWARENESS. NOT TO BE USED FOR FLIGHT PLANNING PURPOSES.
IDs:

KSTL - St Louis/Lambert Int, MO, US

Issued at 1139 UTC 21 Feb 2018
Updated at 1513 UTC 21 Feb 2018
Potential Impact None Slight Moderate High
Time<<22/16Z 22/17Z 22/18Z 22/19Z 22/20Z 22/21Z 22/22Z 22/23Z 23/00Z 23/01Z 23/02Z 23/03Z 23/04Z
Type PRVL PRVL
VIS >6 >6
CIG 8 8
Cover OVC OVC
FltCat IFR IFR
WX -- --
WDir 40 40
WSpd 7 7
WGst -- --

Raw TAF
KSTL 211139Z 2112/2218 35012G20KT P6SM OVC015
  FM211700 01010KT P6SM OVC025
  FM212200 03010G16KT P6SM VCSH OVC020
  FM220300 04009KT P6SM OVC015
  FM220600 04009KT P6SM -FZRA OVC015
  FM221000 04008KT P6SM SCT008 OVC010
  FM221400 04007KT P6SM OVC008


METAR Board
Radar Display
Forecast Discussion

FOR SITUATIONAL AWARENESS. NOT TO BE USED FOR FLIGHT PLANNING PURPOSES.